Time;durP1;ratioP1;P1;durP2;ratioP2;P2;SDS_P1;SDS_P2;PMS_P1;PMS_P2;Temp;Humidity;BMP_temperature;BMP_pressure;BME280_temperature;BME280_humidity;BME280_pressure;Samples;Min_cycle;Max_cycle;Signal;HPM_P1;HPM_P2
2022/11/19 00:00:11;;;;;;;1.85;0.95;;;;;;;9.20;68.83;98205.13;5145475;28;20792;-80
2022/11/19 00:03:01;;;;;;;2.70;0.70;;;;;;;9.25;70.03;98205.53;5145635;28;20072;-80
2022/11/19 00:05:51;;;;;;;1.83;0.60;;;;;;;9.34;69.06;98211.72;5145516;28;20140;-80
2022/11/19 00:08:41;;;;;;;1.45;0.80;;;;;;;9.37;69.77;98211.38;5136987;28;20054;-79
2022/11/19 00:14:40;;;;;;;3.58;0.80;;;;;;;9.27;69.28;98203.56;5146018;28;20054;-80
2022/11/19 00:17:30;;;;;;;2.13;0.95;;;;;;;9.31;69.49;98223.44;5144538;28;20771;-80
2022/11/19 00:20:19;;;;;;;1.58;0.93;;;;;;;9.38;69.04;98218.34;5144389;28;20086;-79
2022/11/19 00:23:10;;;;;;;2.08;0.90;;;;;;;9.42;69.81;98222.34;5144619;28;20425;-80
2022/11/19 00:26:12;;;;;;;2.25;1.25;;;;;;;9.35;69.74;98213.38;5144380;28;20057;-80
2022/11/19 00:29:02;;;;;;;2.33;1.35;;;;;;;9.36;69.88;98201.78;5144150;28;20130;-80
2022/11/19 00:31:52;;;;;;;4.80;1.50;;;;;;;9.43;69.48;98218.69;5130861;28;20101;-80
2022/11/19 00:34:42;;;;;;;4.50;1.20;;;;;;;9.43;69.36;98207.28;5131533;28;20101;-80
2022/11/19 00:37:32;;;;;;;2.53;1.40;;;;;;;9.33;69.58;98205.56;5146408;28;20125;-80
2022/11/19 00:40:22;;;;;;;3.28;1.40;;;;;;;9.46;69.25;98199.88;5144956;28;20085;-80
2022/11/19 00:46:29;;;;;;;6.65;1.63;;;;;;;9.29;69.96;98198.09;5145872;28;20054;-80
2022/11/19 00:49:20;;;;;;;3.63;1.48;;;;;;;9.34;69.24;98207.25;5158329;28;20126;-80
2022/11/19 00:52:11;;;;;;;9.02;3.05;;;;;;;9.50;69.42;98201.19;5143903;28;20069;-80
2022/11/19 00:55:00;;;;;;;7.20;2.90;;;;;;;9.41;69.64;98196.88;5129525;28;20057;-80
2022/11/19 00:57:51;;;;;;;6.28;2.97;;;;;;;9.38;70.06;98198.00;5143532;28;20132;-80
2022/11/19 01:00:41;;;;;;;5.70;2.33;;;;;;;9.43;69.24;98204.63;5123271;28;20055;-80
2022/11/19 01:03:31;;;;;;;7.90;3.15;;;;;;;9.40;70.16;98192.53;5125019;28;20613;-80
2022/11/19 01:06:23;;;;;;;5.00;2.45;;;;;;;9.48;69.60;98220.88;5124199;28;20058;-80
2022/11/19 01:09:14;;;;;;;4.13;1.80;;;;;;;9.45;69.28;98210.63;5110325;29;20113;-80
2022/11/19 01:12:04;;;;;;;3.58;1.77;;;;;;;9.51;69.81;98212.66;5124733;29;20133;-80
2022/11/19 01:14:54;;;;;;;2.47;1.73;;;;;;;9.37;69.63;98206.94;5138725;28;20051;-80
2022/11/19 01:17:44;;;;;;;4.80;1.75;;;;;;;9.38;69.61;98213.88;5123781;28;20057;-80
2022/11/19 01:20:35;;;;;;;5.10;2.10;;;;;;;9.31;69.38;98198.78;5124227;29;20118;-80
2022/11/19 01:23:25;;;;;;;4.63;2.08;;;;;;;9.34;69.99;98217.00;5125680;29;20058;-79
2022/11/19 01:26:15;;;;;;;7.50;1.80;;;;;;;9.44;69.96;98230.09;5127363;28;20054;-80
2022/11/19 01:29:06;;;;;;;4.78;1.40;;;;;;;9.37;69.49;98222.81;5123627;29;20565;-80
2022/11/19 01:31:55;;;;;;;4.72;1.48;;;;;;;9.32;69.95;98211.03;5124983;29;20070;-80
2022/11/19 01:34:45;;;;;;;2.88;1.75;;;;;;;9.28;69.95;98207.84;5124253;29;20066;-80
2022/11/19 01:37:35;;;;;;;4.20;1.67;;;;;;;9.30;70.05;98205.03;5123930;28;20102;-81
2022/11/19 01:40:26;;;;;;;3.90;1.70;;;;;;;9.30;69.70;98208.53;5123833;29;20502;-80
2022/11/19 01:43:17;;;;;;;5.75;1.73;;;;;;;9.35;69.35;98208.06;5153766;28;20133;-80
2022/11/19 01:46:08;;;;;;;3.83;1.88;;;;;;;9.46;69.67;98212.25;5150383;28;20061;-80
2022/11/19 01:49:07;;;;;;;3.65;1.85;;;;;;;9.55;68.82;98224.56;5143273;28;20190;-80
2022/11/19 01:52:01;;;;;;;6.72;2.00;;;;;;;9.45;69.69;98215.91;5129319;28;20062;-80
2022/11/19 01:54:54;;;;;;;2.85;1.85;;;;;;;9.42;70.20;98219.69;5143589;28;20065;-81
2022/11/19 01:57:44;;;;;;;3.53;1.90;;;;;;;9.38;69.33;98203.28;5142639;28;20067;-80
2022/11/19 02:00:34;;;;;;;5.55;2.00;;;;;;;9.37;69.32;98192.84;5143325;28;20624;-80
2022/11/19 02:03:30;;;;;;;3.38;1.92;;;;;;;9.50;69.26;98216.25;5145329;28;20142;-80
2022/11/19 02:06:20;;;;;;;3.33;2.05;;;;;;;9.52;69.31;98222.22;5143192;28;20058;-80
2022/11/19 02:09:10;;;;;;;3.17;2.10;;;;;;;9.27;69.93;98208.84;5143588;28;20520;-80
2022/11/19 02:12:11;;;;;;;3.58;2.08;;;;;;;9.13;69.07;98210.22;5129017;28;20057;-80
2022/11/19 02:15:32;;;;;;;4.55;1.80;;;;;;;9.26;68.88;98214.28;5129963;28;20153;-80
2022/11/19 02:18:41;;;;;;;3.50;1.88;;;;;;;9.31;69.18;98239.31;5129054;28;20051;-80
2022/11/19 02:21:42;;;;;;;4.95;1.90;;;;;;;9.30;69.88;98237.63;5144825;28;20077;-80
2022/11/19 02:24:52;;;;;;;2.67;2.00;;;;;;;9.14;69.35;98222.47;5142868;28;20572;-80
2022/11/19 02:27:58;;;;;;;3.30;2.03;;;;;;;9.00;69.26;98190.44;5128315;28;20067;-80
2022/11/19 02:30:51;;;;;;;3.92;2.35;;;;;;;9.24;69.07;98219.75;5141951;28;20101;-80
2022/11/19 02:33:51;;;;;;;6.47;2.15;;;;;;;9.18;68.95;98218.53;5142030;28;20061;-79
2022/11/19 02:37:04;;;;;;;4.18;1.95;;;;;;;9.19;69.91;98224.66;5142191;28;20050;-80
2022/11/19 02:40:13;;;;;;;2.97;1.85;;;;;;;9.31;70.10;98243.75;5142136;28;20124;-80
2022/11/19 02:43:18;;;;;;;3.00;1.63;;;;;;;9.20;69.63;98221.00;5141643;28;20054;-80
2022/11/19 02:46:13;;;;;;;4.90;1.63;;;;;;;9.17;70.02;98237.19;5141881;28;20101;-80
2022/11/19 02:49:05;;;;;;;2.53;1.65;;;;;;;9.17;69.31;98231.91;5141618;28;20077;-79
2022/11/19 02:51:56;;;;;;;3.67;1.63;;;;;;;9.20;69.62;98236.88;5142254;28;20141;-80
2022/11/19 02:54:45;;;;;;;2.00;1.35;;;;;;;9.18;69.57;98228.28;5140498;28;20050;-80
2022/11/19 02:57:36;;;;;;;6.55;1.50;;;;;;;8.93;69.99;98206.09;5142014;28;20062;-80
2022/11/19 03:06:46;;;;;;;2.92;1.88;;;;;;;9.00;70.33;98228.28;5122076;28;20074;-80
2022/11/19 03:09:47;;;;;;;3.05;1.60;;;;;;;9.18;69.60;98246.81;5135674;28;20505;-80
2022/11/19 03:16:40;;;;;;;2.35;1.48;;;;;;;9.11;69.36;98236.00;5141869;28;20128;-81
2022/11/19 03:19:49;;;;;;;2.80;1.30;;;;;;;9.13;69.72;98235.84;5130751;28;20047;-80
2022/11/19 03:22:52;;;;;;;1.42;1.00;;;;;;;9.18;69.73;98252.09;5145939;28;20061;-81
2022/11/19 03:25:50;;;;;;;4.90;1.60;;;;;;;9.15;69.98;98239.19;5146830;28;20519;-80
2022/11/19 03:28:41;;;;;;;2.63;1.23;;;;;;;9.19;68.72;98245.81;5127996;28;20105;-80
2022/11/19 03:31:33;;;;;;;2.20;1.30;;;;;;;9.11;69.53;98225.44;5140448;28;20558;-80
2022/11/19 03:34:27;;;;;;;3.83;1.30;;;;;;;9.13;69.45;98233.19;5142105;28;20137;-81
2022/11/19 03:37:21;;;;;;;1.58;1.30;;;;;;;9.26;69.17;98246.84;5141847;28;20057;-80
2022/11/19 03:40:14;;;;;;;5.82;1.60;;;;;;;9.31;69.27;98260.47;5155925;28;20058;-80
2022/11/19 03:43:08;;;;;;;3.63;1.52;;;;;;;9.23;69.41;98252.44;5141672;28;20604;-81
2022/11/19 03:46:02;;;;;;;5.97;1.73;;;;;;;9.22;69.61;98253.44;5142440;28;20059;-80
2022/11/19 03:48:55;;;;;;;2.58;1.67;;;;;;;9.28;69.61;98246.72;5154592;28;20113;-80
2022/11/19 03:51:51;;;;;;;3.00;1.25;;;;;;;9.16;69.12;98251.41;5140821;28;20058;-80
2022/11/19 03:54:42;;;;;;;3.03;1.60;;;;;;;9.18;68.98;98262.69;5125977;28;20136;-80
2022/11/19 03:57:33;;;;;;;2.38;1.52;;;;;;;9.23;69.17;98268.31;5140949;28;20144;-81
2022/11/19 04:00:23;;;;;;;2.05;1.50;;;;;;;9.21;69.29;98257.06;5141718;28;20070;-79
2022/11/19 04:03:13;;;;;;;5.45;1.38;;;;;;;9.15;68.58;98255.03;5140939;28;20100;-80
2022/11/19 04:06:04;;;;;;;5.93;1.35;;;;;;;8.97;69.86;98278.84;5154580;28;20489;-80
2022/11/19 04:08:54;;;;;;;2.78;1.70;;;;;;;9.32;69.48;98277.16;5140660;28;20042;-80
2022/11/19 04:11:44;;;;;;;3.50;1.60;;;;;;;9.25;68.80;98250.50;5140771;28;20054;-80
2022/11/19 04:14:36;;;;;;;2.15;1.55;;;;;;;9.29;69.04;98256.31;5154945;28;20108;-80
2022/11/19 04:17:26;;;;;;;2.97;1.38;;;;;;;9.30;69.19;98263.25;5141315;28;20055;-80
2022/11/19 04:20:16;;;;;;;1.85;1.23;;;;;;;9.29;68.39;98257.13;5141055;28;20090;-80
2022/11/19 04:23:07;;;;;;;2.92;1.65;;;;;;;9.38;69.23;98282.66;5141022;28;20058;-80
2022/11/19 04:25:57;;;;;;;2.97;1.73;;;;;;;9.22;69.60;98266.66;5141683;28;20128;-80
2022/11/19 04:28:49;;;;;;;4.00;1.73;;;;;;;9.26;69.57;98261.91;5127553;28;20057;-79
2022/11/19 04:31:39;;;;;;;1.95;1.63;;;;;;;9.36;69.14;98275.88;5139927;28;20444;-80
2022/11/19 04:34:29;;;;;;;4.22;1.42;;;;;;;9.33;70.00;98274.34;5144161;28;20480;-79
2022/11/19 04:37:19;;;;;;;3.47;1.77;;;;;;;9.35;69.54;98267.09;5143888;28;20544;-79
2022/11/19 04:40:10;;;;;;;4.53;1.70;;;;;;;9.25;69.28;98255.78;5144094;28;20054;-79
2022/11/19 04:43:00;;;;;;;3.15;1.45;;;;;;;9.34;69.76;98257.50;5144589;28;20090;-79
2022/11/19 04:45:50;;;;;;;5.03;1.40;;;;;;;9.34;69.81;98268.09;5144853;28;20055;-80
2022/11/19 04:48:41;;;;;;;2.72;1.60;;;;;;;9.39;69.38;98263.16;5157922;28;20058;-80
2022/11/19 04:51:30;;;;;;;4.20;1.75;;;;;;;9.47;69.74;98270.34;5144183;28;20436;-80
2022/11/19 04:54:20;;;;;;;2.22;1.73;;;;;;;9.29;69.48;98246.53;5143318;28;20070;-80
2022/11/19 04:57:10;;;;;;;2.45;1.63;;;;;;;9.51;69.49;98263.75;5129100;28;20683;-78
2022/11/19 05:00:01;;;;;;;4.03;2.20;;;;;;;9.55;69.96;98283.63;5143723;28;20047;-81
2022/11/19 05:02:51;;;;;;;7.22;2.20;;;;;;;9.44;70.31;98277.72;5145097;28;20051;-80
2022/11/19 05:05:41;;;;;;;5.68;2.40;;;;;;;9.43;69.08;98263.69;5144747;28;20062;-80
2022/11/19 05:08:31;;;;;;;6.28;2.08;;;;;;;9.48;70.19;98271.16;5159951;28;20417;-80
2022/11/19 05:11:21;;;;;;;5.38;2.33;;;;;;;9.70;69.49;98268.03;5145143;28;20149;-80
2022/11/19 05:14:11;;;;;;;3.47;2.13;;;;;;;9.70;69.52;98275.09;5157878;28;20084;-80
2022/11/19 05:17:01;;;;;;;3.63;2.00;;;;;;;9.68;69.36;98271.81;5143989;28;20182;-80
2022/11/19 05:19:51;;;;;;;4.32;2.38;;;;;;;9.52;69.69;98262.75;5144253;28;20054;-80
2022/11/19 05:22:41;;;;;;;4.15;2.08;;;;;;;9.63;69.16;98256.38;5144112;28;20077;-79
2022/11/19 05:25:31;;;;;;;5.57;2.10;;;;;;;9.68;69.28;98262.03;5147273;28;20066;-80
2022/11/19 05:28:21;;;;;;;2.83;2.00;;;;;;;9.43;69.54;98252.25;5144083;28;20181;-80
2022/11/19 05:31:27;;;;;;;4.30;1.75;;;;;;;9.58;69.01;98266.59;5143495;28;20050;-80
2022/11/19 05:34:17;;;;;;;1.70;1.50;;;;;;;9.61;69.33;98283.00;5145173;28;20138;-80
2022/11/19 05:37:07;;;;;;;3.55;1.58;;;;;;;9.60;69.06;98256.69;5144293;28;20613;-80
2022/11/19 05:39:57;;;;;;;3.75;1.70;;;;;;;9.57;69.44;98263.13;5143014;28;20140;-80
2022/11/19 05:42:47;;;;;;;2.28;1.52;;;;;;;9.57;69.75;98264.94;5143020;28;20113;-80
2022/11/19 05:45:38;;;;;;;2.35;1.48;;;;;;;9.71;69.43;98276.78;5156246;28;20497;-80
2022/11/19 05:48:28;;;;;;;3.97;1.40;;;;;;;9.75;68.95;98283.41;5136408;28;20055;-81
2022/11/19 05:51:19;;;;;;;2.75;1.88;;;;;;;9.70;69.01;98270.66;5123768;28;20141;-80
2022/11/19 05:54:09;;;;;;;5.00;1.65;;;;;;;9.60;69.84;98280.50;5141408;28;20378;-80
2022/11/19 05:57:00;;;;;;;3.22;1.65;;;;;;;9.69;69.43;98274.28;5142726;28;20436;-80
2022/11/19 05:59:50;;;;;;;3.42;1.60;;;;;;;9.73;69.46;98274.78;5142780;28;20124;-81
2022/11/19 06:02:40;;;;;;;3.75;1.80;;;;;;;9.64;69.24;98266.00;5142354;28;20055;-80
2022/11/19 06:05:31;;;;;;;4.30;1.58;;;;;;;9.46;69.48;98268.66;5143147;28;20046;-80
2022/11/19 06:08:30;;;;;;;3.20;1.73;;;;;;;9.51;68.81;98265.56;5142527;28;20050;-80
2022/11/19 06:14:28;;;;;;;5.07;1.40;;;;;;;9.57;69.12;98286.94;5142622;28;20055;-80
2022/11/19 06:17:18;;;;;;;3.28;1.30;;;;;;;9.46;69.02;98276.59;5128919;28;20059;-81
2022/11/19 06:20:11;;;;;;;3.83;1.40;;;;;;;9.62;68.63;98297.88;5131534;28;20051;-80
2022/11/19 06:23:04;;;;;;;1.95;1.52;;;;;;;9.52;68.96;98293.69;5148289;28;20127;-81
2022/11/19 06:25:56;;;;;;;2.63;1.40;;;;;;;9.55;70.02;98296.84;5155229;28;20057;-81
2022/11/19 06:28:46;;;;;;;3.15;1.38;;;;;;;9.53;69.19;98295.34;5156063;28;20047;-81
2022/11/19 06:31:36;;;;;;;3.22;1.50;;;;;;;9.61;69.19;98306.81;5156833;28;20097;-81
2022/11/19 06:34:26;;;;;;;4.63;1.77;;;;;;;9.31;69.97;98272.88;5163260;28;20030;-81
2022/11/19 06:37:16;;;;;;;2.35;1.50;;;;;;;9.50;69.46;98295.66;5147612;28;20082;-80
2022/11/19 06:40:07;;;;;;;2.25;1.40;;;;;;;9.52;69.97;98309.56;5146562;28;20110;-80
2022/11/19 06:42:57;;;;;;;4.43;1.75;;;;;;;9.50;69.64;98300.94;5150151;28;20425;-80
2022/11/19 06:45:47;;;;;;;4.18;1.90;;;;;;;9.58;69.47;98319.53;5149623;28;20121;-81
2022/11/19 06:48:37;;;;;;;5.50;1.80;;;;;;;9.67;69.86;98321.28;5151048;28;20047;-81
2022/11/19 06:51:27;;;;;;;2.92;1.38;;;;;;;9.43;68.62;98305.19;5150194;28;20089;-80
2022/11/19 06:54:18;;;;;;;2.65;1.67;;;;;;;9.48;69.37;98321.44;5148773;28;20425;-82
2022/11/19 06:57:08;;;;;;;3.95;1.92;;;;;;;9.26;70.02;98298.94;5149728;28;20421;-81
2022/11/19 06:59:58;;;;;;;4.03;1.80;;;;;;;9.52;69.41;98333.38;5137709;28;20055;-81
2022/11/19 07:02:48;;;;;;;2.47;1.92;;;;;;;9.44;69.79;98328.88;5150727;28;20050;-80
2022/11/19 07:05:38;;;;;;;3.28;2.10;;;;;;;9.50;69.61;98346.75;5149552;28;20057;-81
2022/11/19 07:08:32;;;;;;;5.07;2.00;;;;;;;9.36;70.01;98332.25;5148812;28;20101;-81
2022/11/19 07:11:26;;;;;;;3.55;2.30;;;;;;;9.38;69.73;98340.88;5152967;28;20062;-81
2022/11/19 07:14:16;;;;;;;2.60;2.03;;;;;;;9.45;69.83;98340.28;5154323;28;20051;-81
2022/11/19 07:17:06;;;;;;;6.40;2.00;;;;;;;9.30;69.70;98327.56;5155353;28;20141;-81
2022/11/19 07:19:56;;;;;;;2.65;1.98;;;;;;;9.21;70.73;98341.72;5143238;28;20544;-81
2022/11/19 07:22:46;;;;;;;7.40;2.90;;;;;;;9.35;70.09;98350.94;5142677;28;20089;-81
2022/11/19 07:25:37;;;;;;;3.75;2.42;;;;;;;9.36;70.10;98348.13;5152770;28;20085;-81
2022/11/19 07:28:27;;;;;;;6.03;2.58;;;;;;;9.34;70.17;98339.53;5144252;28;20520;-81
2022/11/19 07:31:17;;;;;;;6.10;2.80;;;;;;;9.35;69.65;98343.00;5144369;28;20062;-81
2022/11/19 07:34:09;;;;;;;5.35;2.58;;;;;;;9.37;69.84;98352.44;5144757;28;20065;-81
2022/11/19 07:36:59;;;;;;;6.32;2.50;;;;;;;9.44;70.29;98355.31;5124026;28;20112;-81
2022/11/19 07:39:49;;;;;;;3.65;2.65;;;;;;;9.40;71.11;98356.59;5111721;29;20047;-81
2022/11/19 07:42:49;;;;;;;4.00;2.90;;;;;;;9.46;70.34;98339.28;5126393;29;20055;-80
2022/11/19 07:45:38;;;;;;;6.90;3.03;;;;;;;9.36;69.84;98331.44;5129478;29;20055;-81
2022/11/19 07:48:29;;;;;;;5.07;2.70;;;;;;;9.67;69.33;98368.91;5134475;29;20670;-81
2022/11/19 07:51:21;;;;;;;5.90;2.80;;;;;;;9.70;69.75;98371.25;5149731;28;20085;-81
2022/11/19 07:54:11;;;;;;;8.35;3.15;;;;;;;9.77;69.41;98379.41;5153523;28;20522;-80
2022/11/19 07:57:01;;;;;;;4.32;2.90;;;;;;;9.71;69.36;98372.91;5143367;28;20109;-81
2022/11/19 07:59:51;;;;;;;7.47;3.22;;;;;;;9.77;69.72;98366.19;5142023;28;20062;-80
2022/11/19 08:02:42;;;;;;;3.70;2.83;;;;;;;9.73;69.86;98364.81;5143066;28;20054;-80
2022/11/19 08:05:32;;;;;;;4.53;3.40;;;;;;;9.91;69.48;98378.03;5154290;28;20109;-81
2022/11/19 08:08:22;;;;;;;7.80;3.50;;;;;;;9.78;69.40;98347.47;5143259;28;20053;-81
2022/11/19 08:11:14;;;;;;;7.13;3.75;;;;;;;9.93;70.04;98382.16;5149518;28;20062;-80
2022/11/19 08:14:04;;;;;;;6.70;3.70;;;;;;;9.74;69.62;98367.31;5149002;28;20074;-80
2022/11/19 08:20:03;;;;;;;6.38;3.15;;;;;;;9.96;68.91;98381.84;5144736;28;20117;-80
2022/11/19 08:22:53;;;;;;;5.20;4.47;;;;;;;10.07;68.93;98378.97;5145478;28;20058;-80
2022/11/19 08:25:43;;;;;;;6.72;3.58;;;;;;;10.24;68.63;98387.03;5158878;28;20145;-81
2022/11/19 08:28:33;;;;;;;4.20;3.47;;;;;;;10.52;66.56;98385.84;5146100;28;20069;-81
2022/11/19 08:31:23;;;;;;;5.22;3.33;;;;;;;10.86;66.98;98395.63;5145841;28;20070;-81
2022/11/19 08:34:14;;;;;;;5.43;3.00;;;;;;;11.37;66.42;98406.22;5145324;28;20055;-81
2022/11/19 08:37:05;;;;;;;4.72;3.05;;;;;;;11.40;64.67;98392.63;5146334;28;20558;-81
2022/11/19 08:39:55;;;;;;;6.20;3.10;;;;;;;10.76;66.03;98393.13;5144121;28;20193;-81
2022/11/19 08:43:00;;;;;;;5.53;3.35;;;;;;;10.56;67.48;98396.97;5157627;28;20057;-80
2022/11/19 08:45:53;;;;;;;5.50;2.80;;;;;;;10.76;66.92;98397.56;5144159;28;20117;-80
2022/11/19 08:48:43;;;;;;;6.63;3.55;;;;;;;10.45;67.86;98399.91;5157457;28;20058;-80
2022/11/19 08:51:33;;;;;;;5.20;3.30;;;;;;;11.04;66.55;98400.81;5143172;28;20482;-80
2022/11/19 08:54:23;;;;;;;3.70;2.95;;;;;;;11.14;65.40;98400.69;5140709;28;20117;-80
2022/11/19 08:57:14;;;;;;;5.07;3.63;;;;;;;10.80;66.71;98401.59;5144731;28;20046;-79
2022/11/19 09:00:04;;;;;;;4.75;3.67;;;;;;;9.81;69.48;98420.47;5143575;28;20417;-81
2022/11/19 09:02:58;;;;;;;6.30;3.13;;;;;;;10.53;66.92;98399.97;5130695;28;20141;-80
2022/11/19 09:05:48;;;;;;;6.30;3.97;;;;;;;9.95;68.64;98403.22;5129500;28;20477;-80
2022/11/19 09:08:39;;;;;;;6.28;3.53;;;;;;;10.34;68.99;98419.56;5143562;28;20073;-80
2022/11/19 09:11:30;;;;;;;6.63;3.67;;;;;;;10.47;68.12;98424.44;5144013;28;20066;-80
2022/11/19 09:14:20;;;;;;;6.88;3.90;;;;;;;9.87;71.47;98410.09;5143523;28;20043;-80
2022/11/19 09:17:10;;;;;;;7.60;3.47;;;;;;;10.49;68.10;98425.94;5144487;28;20054;-81
2022/11/19 09:20:01;;;;;;;5.40;3.83;;;;;;;10.55;67.63;98408.56;5156110;28;20053;-83
2022/11/19 09:22:51;;;;;;;7.50;3.72;;;;;;;10.38;68.64;98431.50;5146242;28;20061;-83
2022/11/19 09:25:42;;;;;;;7.00;3.33;;;;;;;10.31;68.75;98420.72;5134770;28;20583;-82
2022/11/19 09:28:32;;;;;;;5.43;3.20;;;;;;;10.71;67.26;98439.66;5145107;28;20097;-82
2022/11/19 09:31:22;;;;;;;10.45;3.60;;;;;;;10.65;67.00;98411.13;5143674;28;20061;-82
2022/11/19 09:34:12;;;;;;;6.05;3.20;;;;;;;10.35;67.38;98422.03;5157853;28;20061;-83
2022/11/19 09:37:02;;;;;;;5.25;3.30;;;;;;;10.39;67.74;98448.25;5143446;28;20062;-82
2022/11/19 09:39:52;;;;;;;6.25;4.22;;;;;;;10.64;67.11;98441.28;5143208;28;20586;-81
2022/11/19 09:43:05;;;;;;;10.77;4.10;;;;;;;10.34;68.43;98431.00;5143222;28;20094;-82
2022/11/19 09:46:23;;;;;;;6.43;3.33;;;;;;;10.34;68.84;98435.47;5156392;28;20066;-82
2022/11/19 09:49:21;;;;;;;;;;;;;;;10.56;67.60;98458.81;5158733;28;20047;-82
2022/11/19 09:52:21;;;;;;;6.13;3.47;;;;;;;10.61;68.39;98447.72;5152315;28;19961;-81
2022/11/19 09:55:18;;;;;;;6.38;2.90;;;;;;;10.95;66.77;98441.56;5142748;28;20509;-82
2022/11/19 09:58:15;;;;;;;8.55;3.60;;;;;;;10.84;66.77;98434.75;5141990;28;20053;-82
2022/11/19 10:01:06;;;;;;;7.72;2.97;;;;;;;10.18;67.04;98425.56;5122186;29;20070;-83
2022/11/19 10:03:56;;;;;;;4.35;2.15;;;;;;;10.43;66.50;98437.19;5122673;28;20055;-82
2022/11/19 10:06:54;;;;;;;5.50;2.22;;;;;;;10.48;66.38;98434.88;5122485;28;20054;-82
2022/11/19 10:10:06;;;;;;;4.95;2.50;;;;;;;10.47;66.71;98448.31;5131611;28;20496;-82
2022/11/19 10:13:34;;;;;;;11.75;2.83;;;;;;;10.65;65.74;98438.44;5140891;28;20166;-82
2022/11/19 10:16:45;;;;;;;5.55;2.75;;;;;;;10.24;66.31;98438.19;5134379;28;20066;-83
2022/11/19 10:19:55;;;;;;;7.60;2.72;;;;;;;10.38;66.58;98435.97;5127563;28;20058;-82
2022/11/19 10:23:03;;;;;;;7.57;2.58;;;;;;;10.50;66.99;98442.69;5144565;28;20063;-81
2022/11/19 10:26:02;;;;;;;6.07;2.70;;;;;;;10.61;66.58;98420.38;5143373;28;20189;-81
2022/11/19 10:28:55;;;;;;;9.77;2.55;;;;;;;10.66;66.71;98426.88;5155870;28;20058;-81
2022/11/19 10:31:47;;;;;;;7.32;2.45;;;;;;;10.83;65.73;98422.47;5140579;28;20102;-82
2022/11/19 10:34:38;;;;;;;5.80;2.47;;;;;;;10.90;66.31;98420.03;5155390;28;20054;-82
2022/11/19 10:37:37;;;;;;;3.50;1.98;;;;;;;10.85;65.72;98425.78;5142944;28;20521;-82
2022/11/19 10:40:35;;;;;;;5.80;2.40;;;;;;;10.29;65.99;98411.25;5143026;28;20186;-83
2022/11/19 10:43:47;;;;;;;6.45;2.25;;;;;;;10.56;65.66;98428.78;5127443;28;20054;-83
2022/11/19 10:46:39;;;;;;;6.80;2.30;;;;;;;10.62;65.10;98420.22;5126010;28;20193;-82
2022/11/19 10:49:33;;;;;;;4.05;2.13;;;;;;;10.42;66.55;98416.94;5142426;28;20049;-81
2022/11/19 10:52:26;;;;;;;;;;;;;;;10.61;66.21;98430.97;5125820;28;20129;-81
2022/11/19 10:55:35;;;;;;;7.32;1.60;;;;;;;10.47;64.98;98424.44;5143491;28;20403;-81
2022/11/19 10:58:41;;;;;;;2.42;1.65;;;;;;;10.05;66.14;98403.94;5140366;28;20078;-81
2022/11/19 11:01:35;;;;;;;3.97;1.70;;;;;;;10.22;65.75;98420.78;5138358;28;20058;-81
2022/11/19 11:04:28;;;;;;;6.75;1.67;;;;;;;10.20;66.45;98426.25;5143310;28;20105;-82
2022/11/19 11:07:20;;;;;;;5.97;1.70;;;;;;;10.33;65.47;98413.44;5143290;28;20050;-82
2022/11/19 11:10:28;;;;;;;3.88;1.73;;;;;;;10.05;65.97;98417.19;5153508;28;20054;-82
2022/11/19 11:16:44;;;;;;;7.75;2.22;;;;;;;10.20;66.07;98414.78;5136218;28;20058;-83
2022/11/19 11:19:34;;;;;;;4.57;1.63;;;;;;;9.88;66.67;98408.28;5136651;28;20047;-80
2022/11/19 11:22:26;;;;;;;4.43;1.70;;;;;;;10.31;65.39;98422.53;5142134;28;20145;-82
2022/11/19 11:25:27;;;;;;;5.85;1.77;;;;;;;10.31;65.31;98420.72;5142480;28;20113;-82
2022/11/19 11:28:19;;;;;;;5.35;1.63;;;;;;;10.13;66.32;98414.56;5156508;28;20098;-82
2022/11/19 11:31:09;;;;;;;7.57;2.17;;;;;;;10.42;66.13;98414.31;5140561;28;20069;-82
2022/11/19 11:34:01;;;;;;;3.97;1.88;;;;;;;10.14;67.52;98426.03;5141186;28;20203;-82
2022/11/19 11:36:52;;;;;;;4.00;1.70;;;;;;;9.74;68.12;98406.19;5140172;28;20054;-82
2022/11/19 11:39:43;;;;;;;6.15;2.13;;;;;;;10.08;67.37;98396.50;5140475;28;20050;-80
2022/11/19 11:42:33;;;;;;;3.40;1.80;;;;;;;10.31;67.58;98396.84;5141263;28;20093;-82
2022/11/19 11:45:35;;;;;;;4.30;2.55;;;;;;;10.28;68.03;98391.88;5144575;28;20065;-83
2022/11/19 11:48:42;;;;;;;7.38;2.20;;;;;;;10.53;67.20;98406.09;5144585;28;20062;-82
2022/11/19 11:51:38;;;;;;;4.57;2.10;;;;;;;9.99;68.09;98370.13;5143947;28;20470;-83
2022/11/19 11:54:28;;;;;;;4.05;2.20;;;;;;;10.38;68.68;98420.09;5132039;28;20505;-83
2022/11/19 11:57:25;;;;;;;3.58;2.20;;;;;;;10.64;67.62;98412.13;5145104;28;20501;-84
2022/11/19 12:00:44;;;;;;;6.43;2.65;;;;;;;10.33;68.96;98416.09;5140653;28;20051;-84
2022/11/19 12:03:34;;;;;;;6.32;2.20;;;;;;;10.08;69.57;98400.97;5145147;28;20090;-83
2022/11/19 12:07:14;;;;;;;5.43;2.20;;;;;;;10.06;69.99;98417.00;5143259;28;20054;-83
2022/11/19 12:10:24;;;;;;;4.88;2.58;;;;;;;10.21;68.69;98408.53;5143904;28;20055;-82
2022/11/19 12:13:46;;;;;;;8.20;2.03;;;;;;;10.22;68.94;98413.66;5143225;28;20699;-82
2022/11/19 12:17:01;;;;;;;3.88;2.15;;;;;;;10.11;69.69;98412.09;5157909;28;20059;-79
2022/11/19 12:20:22;;;;;;;11.32;3.75;;;;;;;9.94;69.87;98414.78;5123123;29;20137;-80
2022/11/19 12:23:18;;;;;;;9.38;2.60;;;;;;;9.83;70.47;98413.19;5125373;29;20533;-82
2022/11/19 12:26:50;;;;;;;4.72;3.40;;;;;;;10.19;69.13;98418.44;5124152;29;20145;-81
2022/11/19 12:30:02;;;;;;;4.97;3.00;;;;;;;10.35;69.57;98407.97;5096244;29;20527;-82
2022/11/19 12:33:21;;;;;;;10.52;3.70;;;;;;;9.96;70.50;98421.56;5138851;28;20053;-82
2022/11/19 12:36:14;;;;;;;8.15;3.10;;;;;;;10.07;69.67;98426.66;5143988;28;20061;-82
2022/11/19 12:39:37;;;;;;;10.50;3.20;;;;;;;9.63;72.36;98423.13;5131057;28;20513;-80
2022/11/19 12:42:43;;;;;;;5.07;3.03;;;;;;;9.83;70.39;98408.75;5128563;28;20133;-80
2022/11/19 12:45:40;;;;;;;6.78;4.18;;;;;;;10.04;70.12;98426.94;5144756;28;20747;-82
2022/11/19 12:48:47;;;;;;;7.85;4.80;;;;;;;9.93;70.58;98424.53;5145477;28;20062;-82
2022/11/19 12:51:58;;;;;;;8.48;3.88;;;;;;;9.82;71.08;98391.19;5146574;28;20066;-80
2022/11/19 12:55:14;;;;;;;5.40;3.70;;;;;;;10.34;68.91;98438.94;5146044;28;20057;-82
2022/11/19 12:58:24;;;;;;;6.90;3.95;;;;;;;9.57;72.72;98442.25;5144794;28;20065;-82
2022/11/19 13:01:22;;;;;;;7.32;3.28;;;;;;;9.30;72.25;98406.09;5144786;28;20062;-80
2022/11/19 13:04:26;;;;;;;7.18;3.45;;;;;;;9.41;71.28;98414.66;5145284;28;20093;-80
2022/11/19 13:07:23;;;;;;;7.63;3.80;;;;;;;9.73;71.24;98426.53;5143740;28;20070;-83
2022/11/19 13:10:19;;;;;;;7.57;3.97;;;;;;;9.36;71.74;98430.16;5157407;28;20046;-79
2022/11/19 13:13:15;;;;;;;7.03;3.83;;;;;;;9.65;70.84;98424.63;5144654;28;20047;-80
2022/11/19 13:16:17;;;;;;;8.82;4.05;;;;;;;9.83;71.20;98424.66;5159372;28;20059;-82
2022/11/19 13:19:35;;;;;;;7.85;4.13;;;;;;;9.74;71.08;98437.97;5146583;28;20047;-82
2022/11/19 13:22:32;;;;;;;6.43;4.18;;;;;;;10.23;69.57;98431.22;5145321;28;20148;-82
2022/11/19 13:25:35;;;;;;;9.23;4.13;;;;;;;10.45;69.81;98435.19;5159290;28;20066;-82
2022/11/19 13:28:35;;;;;;;7.00;4.35;;;;;;;9.62;71.71;98419.66;5143730;28;20054;-82
2022/11/19 13:31:37;;;;;;;7.47;4.05;;;;;;;10.01;70.51;98421.13;5155487;28;20051;-80
2022/11/19 13:34:42;;;;;;;9.30;4.32;;;;;;;10.10;69.86;98409.63;5142463;28;20055;-81
2022/11/19 13:38:04;;;;;;;9.20;4.40;;;;;;;9.97;69.99;98428.56;5157556;28;20066;-81
2022/11/19 13:41:13;;;;;;;7.45;4.15;;;;;;;10.11;69.89;98424.50;5131529;28;20200;-81
2022/11/19 13:47:18;;;;;;;7.60;4.03;;;;;;;9.67;70.92;98423.66;5160840;28;20050;-81
2022/11/19 13:50:17;;;;;;;9.60;4.55;;;;;;;9.47;71.59;98429.13;5141098;28;22096;-81
2022/11/19 13:53:13;;;;;;;7.80;4.53;;;;;;;9.83;70.21;98407.91;5139992;28;20193;-82
2022/11/19 13:56:11;;;;;;;8.98;5.05;;;;;;;9.76;70.74;98433.34;5141641;28;20066;-81
2022/11/19 13:59:01;;;;;;;8.65;4.53;;;;;;;8.94;72.97;98416.66;5140766;28;20436;-82
2022/11/19 14:02:04;;;;;;;16.50;8.07;;;;;;;9.44;72.54;98417.97;5139979;28;20631;-82
2022/11/19 14:05:19;;;;;;;12.17;6.57;;;;;;;10.04;70.74;98431.41;5148851;28;20055;-82
2022/11/19 14:08:35;;;;;;;12.27;5.25;;;;;;;9.57;70.73;98439.59;5126505;28;20689;-84
2022/11/19 14:12:02;;;;;;;8.90;6.15;;;;;;;9.09;69.13;98443.41;5140567;28;20046;-84
2022/11/19 14:28:39;;;;;;;7.72;5.35;;;;;;;8.10;69.46;98462.34;5144049;28;20062;-82
2022/11/19 14:31:29;;;;;;;8.13;5.05;;;;;;;7.56;71.68;98461.13;5141762;28;20054;-83
2022/11/19 14:34:28;;;;;;;10.93;4.70;;;;;;;7.54;70.44;98455.16;5143065;28;20150;-82